createdAt,value
2018-09-04T00:00:56.146Z,100327.05
2018-09-04T00:03:24.535Z,100316.11
2018-09-04T00:05:52.730Z,100324.57
2018-09-04T00:08:21.207Z,100324.59
2018-09-04T00:10:49.474Z,100323.22
2018-09-04T00:13:17.709Z,100313.92
2018-09-04T00:15:45.986Z,100312.55
2018-09-04T00:18:14.324Z,100314.44
2018-09-04T00:20:42.488Z,100301.88
2018-09-04T00:23:10.892Z,100310.88
2018-09-04T00:25:39.074Z,100316.62
2018-09-04T00:28:07.440Z,100313.33
2018-09-04T00:30:35.582Z,100314.42
2018-09-04T00:33:03.820Z,100313.03
2018-09-04T00:35:32.075Z,100311.69
2018-09-04T00:38:00.415Z,100311.94
2018-09-04T00:40:28.561Z,100307.29
2018-09-04T00:42:56.947Z,100313.03
2018-09-04T00:45:25.113Z,100307.56
2018-09-04T00:47:53.444Z,100311.94
2018-09-04T00:50:21.740Z,100309.48
2018-09-04T00:52:49.974Z,100312.46
2018-09-04T00:55:18.405Z,100312.46
2018-09-04T00:57:46.606Z,100311.34
2018-09-04T01:00:14.828Z,100309.70
2018-09-04T01:02:43.328Z,100312.41
2018-09-04T01:05:11.737Z,100303.94
2018-09-04T01:07:40.070Z,100305.31
2018-09-04T01:10:08.240Z,100310.50
2018-09-04T01:12:36.700Z,100310.52
2018-09-04T01:15:05.288Z,100305.88
2018-09-04T01:17:33.708Z,100314.33
2018-09-04T01:20:02.083Z,100310.46
2018-09-04T01:22:30.516Z,100311.01
2018-09-04T01:24:58.814Z,100301.15
2018-09-04T01:27:27.039Z,100299.17
2018-09-04T01:29:55.381Z,100302.20
2018-09-04T01:32:23.493Z,100299.73
2018-09-04T01:34:51.670Z,100302.44
2018-09-04T01:37:19.988Z,100302.17
2018-09-04T01:39:48.465Z,100300.00
2018-09-04T01:42:16.559Z,100300.54
2018-09-04T01:44:44.871Z,100303.23
2018-09-04T01:47:12.973Z,100305.13
2018-09-04T01:49:41.303Z,100301.02
2018-09-04T01:52:09.453Z,100298.61
2018-09-04T01:54:37.681Z,100294.73
2018-09-04T01:57:05.817Z,100297.73
2018-09-04T01:59:33.973Z,100297.17
2018-09-04T02:02:02.142Z,100304.23
2018-09-04T02:04:30.345Z,100308.85
2018-09-04T02:06:58.526Z,100308.30
2018-09-04T02:09:26.995Z,100310.98
2018-09-04T02:11:55.327Z,100307.70
2018-09-04T02:14:23.885Z,100313.95
2018-09-04T02:16:52.191Z,100309.33
2018-09-04T02:19:20.871Z,100307.64
2018-09-04T02:21:49.502Z,100309.27
2018-09-04T02:24:17.705Z,100314.16
2018-09-04T02:26:45.920Z,100312.27
2018-09-04T02:29:14.240Z,100309.77
2018-09-04T02:31:42.570Z,100321.17
2018-09-04T02:34:10.706Z,100317.62
2018-09-04T02:36:38.909Z,100318.98
2018-09-04T02:39:09.627Z,100324.92
2018-09-04T02:41:37.941Z,100316.75
2018-09-04T02:44:06.578Z,100317.58
2018-09-04T02:46:35.723Z,100317.58
2018-09-04T02:49:04.558Z,100322.99
2018-09-04T02:51:32.797Z,100321.86
2018-09-04T02:54:01.452Z,100322.13
2018-09-04T02:56:29.800Z,100325.68
2018-09-04T02:58:58.100Z,100326.47
2018-09-04T03:01:26.710Z,100331.13
2018-09-04T03:03:55.132Z,100321.63
2018-09-04T03:06:23.320Z,100326.85
2018-09-04T03:08:51.528Z,100326.84
2018-09-04T03:11:19.710Z,100332.00
2018-09-04T03:13:48.079Z,100336.98
2018-09-04T03:16:16.540Z,100338.39
2018-09-04T03:18:44.707Z,100333.47
2018-09-04T03:21:12.824Z,100339.15
2018-09-04T03:23:41.081Z,100341.38
2018-09-04T03:26:09.323Z,100342.52
2018-09-04T03:28:37.610Z,100335.77
2018-09-04T03:31:06.159Z,100341.25
2018-09-04T03:33:34.441Z,100341.04
2018-09-04T03:36:02.625Z,100345.95
2018-09-04T03:38:30.932Z,100343.26
2018-09-04T03:40:59.228Z,100343.84
2018-09-04T03:43:27.545Z,100342.45
2018-09-04T03:45:56.167Z,100340.61
2018-09-04T03:48:24.966Z,100348.02
2018-09-04T03:50:53.323Z,100350.47
2018-09-04T03:53:21.497Z,100342.82
2018-09-04T03:55:49.886Z,100346.65
2018-09-04T03:58:18.032Z,100352.42
2018-09-04T04:00:46.365Z,100354.38
2018-09-04T04:03:14.528Z,100357.37
2018-09-04T04:05:42.711Z,100354.62
2018-09-04T04:08:10.992Z,100361.12
2018-09-04T04:10:39.290Z,100360.23
2018-09-04T04:13:07.603Z,100362.64
2018-09-04T04:15:35.993Z,100360.39
2018-09-04T04:18:04.911Z,100364.75
2018-09-04T04:20:33.078Z,100357.10
2018-09-04T04:23:01.450Z,100352.78
2018-09-04T04:25:30.547Z,100350.02
2018-09-04T04:27:59.401Z,100354.31
2018-09-04T04:30:27.723Z,100356.97
2018-09-04T04:32:56.160Z,100366.77
2018-09-04T04:35:24.385Z,100364.31
2018-09-04T04:37:52.803Z,100359.59
2018-09-04T04:40:21.895Z,100361.70
2018-09-04T04:42:50.952Z,100357.58
2018-09-04T04:45:19.147Z,100360.95
2018-09-04T04:47:47.801Z,100360.34
2018-09-04T04:50:16.915Z,100367.64
2018-09-04T04:52:45.133Z,100375.50
2018-09-04T04:55:14.278Z,100370.06
2018-09-04T04:57:42.392Z,100370.41
2018-09-04T05:00:10.653Z,100370.45
2018-09-04T05:02:39.094Z,100374.19
2018-09-04T05:05:07.368Z,100372.91
2018-09-04T05:07:35.814Z,100376.23
2018-09-04T05:10:04.066Z,100370.56
2018-09-04T05:12:32.260Z,100375.98
2018-09-04T05:15:00.443Z,100378.17
2018-09-04T05:17:28.664Z,100383.36
2018-09-04T05:19:56.805Z,100376.09
2018-09-04T05:22:25.082Z,100379.74
2018-09-04T05:24:53.328Z,100388.81
2018-09-04T05:27:21.708Z,100383.57
2018-09-04T05:29:49.890Z,100387.42
2018-09-04T05:32:37.472Z,100391.81
2018-09-04T05:35:06.056Z,100394.54
2018-09-04T05:37:34.465Z,100399.23
2018-09-04T05:40:02.564Z,100402.22
2018-09-04T05:42:34.071Z,100404.09
2018-09-04T05:45:02.935Z,100401.42
2018-09-04T05:47:34.120Z,100397.30
2018-09-04T05:50:03.212Z,100396.83
2018-09-04T05:52:31.480Z,100399.28
2018-09-04T05:54:59.762Z,100403.46
2018-09-04T05:57:28.058Z,100409.13
2018-09-04T05:59:56.226Z,100399.47
2018-09-04T06:02:24.601Z,100409.97
2018-09-04T06:04:52.812Z,100409.20
2018-09-04T06:07:21.647Z,100410.05
2018-09-04T06:09:49.766Z,100404.86
2018-09-04T06:12:17.906Z,100406.28
2018-09-04T06:14:46.037Z,100413.16
2018-09-04T06:17:14.251Z,100411.23
2018-09-04T06:19:42.599Z,100416.97
2018-09-04T06:22:10.804Z,100410.95
2018-09-04T06:24:39.132Z,100408.21
2018-09-04T06:27:07.465Z,100406.79
2018-09-04T06:29:35.643Z,100406.72
2018-09-04T06:32:03.767Z,100406.89
2018-09-04T06:34:33.623Z,100409.25
2018-09-04T06:37:01.838Z,100411.39
2018-09-04T06:39:29.978Z,100407.98
2018-09-04T06:41:58.186Z,100413.84
2018-09-04T06:44:26.470Z,100407.97
2018-09-04T06:46:55.230Z,100418.14
2018-09-04T06:49:23.469Z,100417.34
2018-09-04T06:51:51.564Z,100415.59
2018-09-04T06:54:19.818Z,100414.41
2018-09-04T06:56:48.249Z,100420.98
2018-09-04T06:59:16.371Z,100417.13
2018-09-04T07:01:44.530Z,100417.13
2018-09-04T07:04:12.918Z,100423.30
2018-09-04T07:06:41.084Z,100416.02
2018-09-04T07:09:11.343Z,100423.67
2018-09-04T07:11:39.540Z,100422.66
2018-09-04T07:14:08.036Z,100424.25
2018-09-04T07:16:36.318Z,100428.62
2018-09-04T07:19:05.253Z,100434.52
2018-09-04T07:21:33.546Z,100437.49
2018-09-04T07:24:01.920Z,100440.14
2018-09-04T07:26:30.210Z,100440.87
2018-09-04T07:28:58.628Z,100443.86
2018-09-04T07:31:26.840Z,100434.52
2018-09-04T07:33:55.014Z,100439.55
2018-09-04T07:36:23.216Z,100437.86
2018-09-04T07:38:51.592Z,100435.39
2018-09-04T07:41:20.086Z,100431.52
2018-09-04T07:43:48.313Z,100432.73
2018-09-04T07:46:16.500Z,100432.47
2018-09-04T07:48:45.294Z,100432.80
2018-09-04T07:51:13.507Z,100431.23
2018-09-04T07:53:41.861Z,100428.56
2018-09-04T07:56:10.069Z,100433.44
2018-09-04T07:58:38.266Z,100430.47
2018-09-04T08:01:06.602Z,100421.81
2018-09-04T08:03:35.017Z,100421.23
2018-09-04T08:06:03.211Z,100419.83
2018-09-04T08:08:31.557Z,100422.38
2018-09-04T08:10:59.819Z,100418.20
2018-09-04T08:13:27.965Z,100410.17
2018-09-04T08:15:56.701Z,100409.48
2018-09-04T08:18:24.886Z,100410.13
2018-09-04T08:20:53.164Z,100415.21
2018-09-04T08:23:21.304Z,100413.58
2018-09-04T08:25:49.508Z,100412.89
2018-09-04T08:28:17.667Z,100414.22
2018-09-04T08:30:45.896Z,100408.20
2018-09-04T08:33:14.205Z,100399.76
2018-09-04T08:35:42.382Z,100403.67
2018-09-04T08:38:11.281Z,100401.22
2018-09-04T08:40:39.427Z,100401.02
2018-09-04T08:43:07.727Z,100394.69
2018-09-04T08:45:35.912Z,100389.08
2018-09-04T08:48:08.726Z,100388.45
2018-09-04T08:50:37.035Z,100385.91
2018-09-04T08:53:05.209Z,100385.33
2018-09-04T08:55:33.419Z,100379.64
2018-09-04T08:58:01.655Z,100388.50
2018-09-04T09:00:29.870Z,100380.13
2018-09-04T09:02:58.074Z,100377.17
2018-09-04T09:05:26.234Z,100381.46
2018-09-04T09:07:54.481Z,100373.52
2018-09-04T09:10:22.773Z,100374.16
2018-09-04T09:12:50.937Z,100373.31
2018-09-04T09:15:19.235Z,100370.06
2018-09-04T09:17:47.475Z,100366.34
2018-09-04T09:20:15.773Z,100360.92
2018-09-04T09:22:43.903Z,100364.25
2018-09-04T09:25:12.214Z,100358.56
2018-09-04T09:27:40.478Z,100361.69
2018-09-04T09:30:08.771Z,100364.36
2018-09-04T09:32:37.010Z,100360.71
2018-09-04T09:35:05.322Z,100349.60
2018-09-04T09:37:33.466Z,100356.58
2018-09-04T09:40:01.650Z,100360.66
2018-09-04T09:42:29.868Z,100366.55
2018-09-04T09:44:58.173Z,100358.29
2018-09-04T09:47:26.452Z,100351.87
2018-09-04T09:49:54.663Z,100356.02
2018-09-04T09:52:22.917Z,100355.86
2018-09-04T09:54:51.047Z,100351.09
2018-09-04T09:57:19.443Z,100343.23
2018-09-04T09:59:47.610Z,100335.77
2018-09-04T10:02:19.884Z,100334.86
2018-09-04T10:04:48.194Z,100325.66
2018-09-04T10:07:16.426Z,100328.17
2018-09-04T10:09:44.676Z,100324.05
2018-09-04T10:12:12.981Z,100328.63
2018-09-04T10:14:41.195Z,100330.97
2018-09-04T10:17:09.613Z,100328.83
2018-09-04T10:19:37.738Z,100323.89
2018-09-04T10:22:05.949Z,100325.11
2018-09-04T10:24:34.312Z,100320.86
2018-09-04T10:27:02.541Z,100321.45
2018-09-04T10:29:30.676Z,100323.80
2018-09-04T10:31:58.849Z,100321.41
2018-09-04T10:34:27.103Z,100330.86
2018-09-04T10:36:55.332Z,100324.29
2018-09-04T10:39:29.433Z,100317.66
2018-09-04T10:41:57.697Z,100319.92
2018-09-04T10:44:30.446Z,100320.32
2018-09-04T10:46:58.637Z,100313.89
2018-09-04T10:49:26.835Z,100309.35
2018-09-04T10:51:55.082Z,100312.23
2018-09-04T10:54:23.297Z,100309.13
2018-09-04T10:56:51.521Z,100312.67
2018-09-04T10:59:19.751Z,100304.42
2018-09-04T11:01:48.075Z,100302.94
2018-09-04T11:04:16.354Z,100307.42
2018-09-04T11:06:44.544Z,100291.23
2018-09-04T11:09:12.842Z,100289.41
2018-09-04T11:11:41.932Z,100292.53
2018-09-04T11:14:10.304Z,100291.50
2018-09-04T11:16:39.317Z,100280.75
2018-09-04T11:19:07.538Z,100276.20
2018-09-04T11:21:35.763Z,100270.22
2018-09-04T11:24:04.039Z,100272.26
2018-09-04T11:26:32.864Z,100258.95
2018-09-04T11:29:04.591Z,100259.81
2018-09-04T11:31:32.832Z,100251.25
2018-09-04T11:34:01.168Z,100252.47
2018-09-04T11:36:29.305Z,100251.16
2018-09-04T11:38:57.436Z,100244.61
2018-09-04T11:41:25.697Z,100252.33
2018-09-04T11:43:53.898Z,100254.95
2018-09-04T11:46:22.205Z,100261.33
2018-09-04T11:48:50.336Z,100255.38
2018-09-04T11:51:18.722Z,100258.11
2018-09-04T11:53:46.909Z,100265.72
2018-09-04T11:56:19.045Z,100256.74
2018-09-04T11:58:47.533Z,100255.56
2018-09-04T12:01:17.385Z,100261.75
2018-09-04T12:03:45.812Z,100259.73
2018-09-04T12:06:14.184Z,100255.60
2018-09-04T12:08:42.383Z,100256.45
2018-09-04T12:11:10.619Z,100253.46
2018-09-04T12:13:38.849Z,100252.16
2018-09-04T12:16:07.016Z,100252.92
2018-09-04T12:18:35.147Z,100255.19
2018-09-04T12:21:08.679Z,100254.47
2018-09-04T12:23:36.829Z,100242.88
2018-09-04T12:26:06.521Z,100245.88
2018-09-04T12:28:34.795Z,100245.28
2018-09-04T12:31:03.343Z,100240.94
2018-09-04T12:33:31.603Z,100235.91
2018-09-04T12:35:59.766Z,100235.75
2018-09-04T12:38:32.888Z,100234.59
2018-09-04T12:41:06.553Z,100231.58
2018-09-04T12:43:36.732Z,100232.41
2018-09-04T12:46:05.214Z,100229.38
2018-09-04T12:48:33.476Z,100229.01
2018-09-04T12:51:02.458Z,100228.47
2018-09-04T12:53:31.470Z,100219.70
2018-09-04T12:55:59.656Z,100232.64
2018-09-04T12:58:27.819Z,100221.14
2018-09-04T13:00:56.762Z,100220.95
2018-09-04T13:03:26.851Z,100215.69
2018-09-04T13:05:55.208Z,100225.77
2018-09-04T13:08:25.128Z,100228.14
2018-09-04T13:10:53.401Z,100219.08
2018-09-04T13:13:21.612Z,100205.67
2018-09-04T13:15:51.668Z,100208.44
2018-09-04T13:18:20.081Z,100202.59
2018-09-04T13:20:48.310Z,100210.28
2018-09-04T13:23:16.595Z,100209.83
2018-09-04T13:25:44.790Z,100210.45
2018-09-04T13:28:13.059Z,100214.28
2018-09-04T13:30:41.311Z,100207.84
2018-09-04T13:33:09.517Z,100209.06
2018-09-04T13:35:37.905Z,100205.11
2018-09-04T13:38:06.671Z,100210.19
2018-09-04T13:40:34.817Z,100212.83
2018-09-04T13:43:03.094Z,100205.50
2018-09-04T13:45:31.332Z,100207.44
2018-09-04T13:48:00.185Z,100204.64
2018-09-04T13:50:28.663Z,100198.31
2018-09-04T13:52:56.961Z,100189.58
2018-09-04T13:55:25.223Z,100197.15
2018-09-04T13:57:53.393Z,100197.97
2018-09-04T14:00:22.596Z,100197.91
2018-09-04T14:02:50.838Z,100200.00
2018-09-04T14:05:19.054Z,100192.60
2018-09-04T14:07:47.279Z,100193.20
2018-09-04T14:10:15.436Z,100196.27
2018-09-04T14:12:43.594Z,100192.90
2018-09-04T14:15:11.844Z,100195.20
2018-09-04T14:17:40.042Z,100185.84
2018-09-04T14:20:08.277Z,100186.47
2018-09-04T14:22:36.607Z,100188.53
2018-09-04T14:25:04.837Z,100185.70
2018-09-04T14:27:33.009Z,100186.52
2018-09-04T14:30:16.459Z,100185.28
2018-09-04T14:32:29.652Z,100186.45
2018-09-04T14:34:57.837Z,100184.86
2018-09-04T14:37:25.980Z,100176.02
2018-09-04T14:39:55.587Z,100176.81
2018-09-04T14:42:22.433Z,100182.87
2018-09-04T14:44:50.716Z,100185.51
2018-09-04T14:47:18.856Z,100183.62
2018-09-04T14:49:47.082Z,100187.36
2018-09-04T14:52:15.299Z,100192.15
2018-09-04T14:54:44.204Z,100184.09
2018-09-04T14:57:12.349Z,100179.37
2018-09-04T14:59:40.633Z,100187.67
2018-09-04T15:02:08.873Z,100181.02
2018-09-04T15:04:37.089Z,100184.73
2018-09-04T15:07:05.339Z,100182.89
2018-09-04T15:09:33.558Z,100190.84
2018-09-04T15:12:01.975Z,100194.44
2018-09-04T15:14:30.178Z,100191.92
2018-09-04T15:16:59.387Z,100191.14
2018-09-04T15:19:27.912Z,100193.51
2018-09-04T15:21:56.107Z,100186.72
2018-09-04T15:24:24.232Z,100197.44
2018-09-04T15:26:52.532Z,100189.63
2018-09-04T15:29:20.689Z,100197.08
2018-09-04T15:31:48.835Z,100188.77
2018-09-04T15:34:17.052Z,100193.40
2018-09-04T15:36:45.261Z,100193.93
2018-09-04T15:39:13.549Z,100199.41
2018-09-04T15:41:41.751Z,100198.93
2018-09-04T15:44:10.018Z,100194.88
2018-09-04T15:46:38.205Z,100195.03
2018-09-04T15:49:11.973Z,100191.68
2018-09-04T15:51:40.077Z,100194.33
2018-09-04T15:54:08.201Z,100193.36
2018-09-04T15:56:36.489Z,100193.12
2018-09-04T15:59:04.793Z,100189.23
2018-09-04T16:01:33.029Z,100197.39
2018-09-04T16:04:01.275Z,100200.55
2018-09-04T16:06:29.484Z,100198.56
2018-09-04T16:08:57.845Z,100194.26
2018-09-04T16:11:26.051Z,100203.54
2018-09-04T16:13:54.159Z,100197.23
2018-09-04T16:16:22.375Z,100201.82
2018-09-04T16:18:50.645Z,100202.02
2018-09-04T16:21:19.520Z,100201.64
2018-09-04T16:23:47.685Z,100201.05
2018-09-04T16:26:15.884Z,100207.55
2018-09-04T16:28:44.018Z,100204.79
2018-09-04T16:31:12.165Z,100214.64
2018-09-04T16:33:40.412Z,100210.22
2018-09-04T16:36:08.684Z,100214.41
2018-09-04T16:38:36.915Z,100210.58
2018-09-04T16:41:05.171Z,100212.91
2018-09-04T16:43:33.405Z,100209.91
2018-09-04T16:46:01.686Z,100220.84
2018-09-04T16:48:30.894Z,100213.53
2018-09-04T16:51:00.366Z,100217.59
2018-09-04T16:53:30.442Z,100222.45
2018-09-04T16:55:59.507Z,100225.21
2018-09-04T16:58:27.746Z,100218.89
2018-09-04T17:00:55.904Z,100223.34
2018-09-04T17:03:24.314Z,100227.80
2018-09-04T17:05:52.562Z,100231.58
2018-09-04T17:08:20.798Z,100237.60
2018-09-04T17:10:49.080Z,100239.91
2018-09-04T17:13:17.270Z,100238.59
2018-09-04T17:15:45.464Z,100234.13
2018-09-04T17:18:13.702Z,100244.84
2018-09-04T17:20:41.933Z,100245.62
2018-09-04T17:23:10.139Z,100248.42
2018-09-04T17:25:38.452Z,100252.77
2018-09-04T17:28:06.674Z,100255.38
2018-09-04T17:30:34.892Z,100249.01
2018-09-04T17:33:03.201Z,100252.77
2018-09-04T17:35:31.486Z,100249.61
2018-09-04T17:37:59.746Z,100253.41
2018-09-04T17:40:27.976Z,100256.87
2018-09-04T17:42:56.323Z,100265.06
2018-09-04T17:45:24.508Z,100265.80
2018-09-04T17:47:52.758Z,100262.09
2018-09-04T17:50:20.910Z,100272.82
2018-09-04T17:52:49.045Z,100281.64
2018-09-04T17:55:17.272Z,100275.63
2018-09-04T17:57:45.538Z,100272.80
2018-09-04T18:00:13.761Z,100275.45
2018-09-04T18:02:41.990Z,100280.33
2018-09-04T18:05:10.268Z,100283.67
2018-09-04T18:08:09.540Z,100287.59
2018-09-04T18:10:37.692Z,100288.64
2018-09-04T18:13:05.885Z,100295.86
2018-09-04T18:15:34.086Z,100292.43
2018-09-04T18:18:02.247Z,100299.95
2018-09-04T18:20:30.494Z,100301.20
2018-09-04T18:22:58.833Z,100300.25
2018-09-04T18:25:27.110Z,100301.39
2018-09-04T18:27:55.356Z,100314.24
2018-09-04T18:30:23.575Z,100319.25
2018-09-04T18:32:51.828Z,100317.80
2018-09-04T18:35:20.045Z,100327.24
2018-09-04T18:37:48.249Z,100327.88
2018-09-04T18:40:16.512Z,100332.37
2018-09-04T18:42:44.749Z,100329.33
2018-09-04T18:45:30.369Z,100335.58
2018-09-04T18:47:58.661Z,100338.77
2018-09-04T18:50:26.930Z,100341.36
2018-09-04T18:52:55.155Z,100345.27
2018-09-04T18:55:23.362Z,100337.88
2018-09-04T18:57:51.517Z,100344.02
2018-09-04T19:00:19.833Z,100351.78
2018-09-04T19:02:48.976Z,100350.18
2018-09-04T19:05:17.368Z,100355.70
2018-09-04T19:07:46.541Z,100359.84
2018-09-04T19:10:15.063Z,100362.63
2018-09-04T19:12:43.370Z,100372.55
2018-09-04T19:15:11.732Z,100380.06
2018-09-04T19:17:40.573Z,100382.32
2018-09-04T19:20:09.363Z,100382.38
2018-09-04T19:22:37.607Z,100379.05
2018-09-04T19:25:05.962Z,100383.28
2018-09-04T19:27:34.166Z,100387.99
2018-09-04T19:30:02.980Z,100385.03
2018-09-04T19:32:31.164Z,100388.92
2018-09-04T19:34:59.430Z,100389.22
2018-09-04T19:37:27.712Z,100394.41
2018-09-04T19:39:55.992Z,100395.03
2018-09-04T19:42:24.527Z,100390.42
2018-09-04T19:44:52.836Z,100397.00
2018-09-04T19:47:21.146Z,100396.77
2018-09-04T19:49:49.745Z,100400.09
2018-09-04T19:52:18.138Z,100401.80
2018-09-04T19:54:46.526Z,100409.23
2018-09-04T19:57:15.420Z,100411.19
2018-09-04T19:59:43.718Z,100415.91
2018-09-04T20:02:11.992Z,100411.80
2018-09-04T20:04:40.140Z,100411.83
2018-09-04T20:07:08.590Z,100415.72
2018-09-04T20:09:37.150Z,100413.81
2018-09-04T20:12:05.555Z,100413.05
2018-09-04T20:14:34.402Z,100413.63
2018-09-04T20:17:02.596Z,100412.86
2018-09-04T20:19:30.732Z,100414.22
2018-09-04T20:21:59.007Z,100416.65
2018-09-04T20:24:27.224Z,100422.70
2018-09-04T20:26:55.501Z,100421.93
2018-09-04T20:29:23.816Z,100415.94
2018-09-04T20:31:52.077Z,100414.55
2018-09-04T20:34:20.441Z,100417.58
2018-09-04T20:36:48.647Z,100418.14
2018-09-04T20:39:17.021Z,100423.08
2018-09-04T20:41:45.231Z,100420.10
2018-09-04T20:44:13.595Z,100420.64
2018-09-04T20:46:42.859Z,100425.31
2018-09-04T20:49:11.376Z,100424.80
2018-09-04T20:51:39.627Z,100426.98
2018-09-04T20:54:08.038Z,100430.56
2018-09-04T20:56:36.386Z,100434.41
2018-09-04T20:59:21.937Z,100439.62
2018-09-04T21:02:07.401Z,100440.45
2018-09-04T21:04:52.632Z,100439.89
2018-09-04T21:07:24.709Z,100440.20
2018-09-04T21:09:58.525Z,100438.27
2018-09-04T21:12:27.585Z,100440.73
2018-09-04T21:14:56.017Z,100443.78
2018-09-04T21:17:24.398Z,100447.32
2018-09-04T21:19:52.707Z,100452.81
2018-09-04T21:22:20.916Z,100450.87
2018-09-04T21:24:49.048Z,100445.41
2018-09-04T21:27:17.437Z,100451.45
2018-09-04T21:29:45.738Z,100441.87
2018-09-04T21:32:14.765Z,100448.69
2018-09-04T21:34:42.997Z,100448.41
2018-09-04T21:37:12.324Z,100451.69
2018-09-04T21:39:40.564Z,100449.48
2018-09-04T21:42:08.828Z,100443.19
2018-09-04T21:44:37.230Z,100448.66
2018-09-04T21:47:05.628Z,100449.75
2018-09-04T21:49:33.932Z,100449.50
2018-09-04T21:52:02.155Z,100453.89
2018-09-04T21:54:30.409Z,100460.44
2018-09-04T21:57:02.567Z,100452.78
2018-09-04T21:59:31.044Z,100454.69
2018-09-04T22:01:59.256Z,100455.25
2018-09-04T22:04:27.569Z,100455.52
2018-09-04T22:06:55.744Z,100453.59
2018-09-04T22:09:23.928Z,100450.58
2018-09-04T22:11:52.347Z,100460.16
2018-09-04T22:14:20.559Z,100460.70
2018-09-04T22:16:49.110Z,100465.92
2018-09-04T22:19:17.319Z,100467.03
2018-09-04T22:21:45.539Z,100474.42
2018-09-04T22:24:14.245Z,100471.13
2018-09-04T22:26:42.912Z,100472.78
2018-09-04T22:29:11.183Z,100470.86
2018-09-04T22:31:39.415Z,100467.33
2018-09-04T22:34:07.745Z,100474.71
2018-09-04T22:36:36.077Z,100471.72
2018-09-04T22:39:06.298Z,100471.98
2018-09-04T22:41:35.089Z,100470.33
2018-09-04T22:44:03.479Z,100479.34
2018-09-04T22:46:32.368Z,100477.42
2018-09-04T22:49:00.513Z,100484.80
2018-09-04T22:51:35.785Z,100485.91
2018-09-04T22:54:05.439Z,100485.34
2018-09-04T22:56:34.097Z,100491.90
2018-09-04T22:59:02.385Z,100493.02
2018-09-04T23:01:31.034Z,100496.56
2018-09-04T23:03:59.168Z,100493.02
2018-09-04T23:06:27.386Z,100496.56
2018-09-04T23:08:55.639Z,100504.47
2018-09-04T23:11:24.059Z,100495.98
2018-09-04T23:13:52.435Z,100490.51
2018-09-04T23:16:20.761Z,100491.88
2018-09-04T23:18:56.098Z,100496.53
2018-09-04T23:21:24.399Z,100492.69
2018-09-04T23:23:52.617Z,100499.23
2018-09-04T23:26:20.963Z,100491.28
2018-09-04T23:28:49.259Z,100493.77
2018-09-04T23:31:17.382Z,100488.55
2018-09-04T23:33:45.756Z,100486.64
2018-09-04T23:36:14.520Z,100487.19
2018-09-04T23:38:42.740Z,100490.47
2018-09-04T23:41:10.939Z,100482.53
2018-09-04T23:43:39.114Z,100481.19
2018-09-04T23:46:07.255Z,100484.23
2018-09-04T23:48:35.570Z,100480.13
2018-09-04T23:51:03.756Z,100485.04
2018-09-04T23:53:32.098Z,100490.77
2018-09-04T23:56:00.915Z,100485.58
2018-09-04T23:58:29.207Z,100487.99
